Flight Track Log - Related Links

Times and Time Zones

All times are in EST time to prevent confusion due to time zone crossing. See the RPA3390 flight status page for this flight to view local times or setup timezone preferences in your user account.

Time Position Orientation Groundspeed Altitude Reporting Facility
EST Latitude Longitude Course Direction KTS MPH feet Rate Location/Type
Mon 01:21:40 PM 36.1167 -86.6833 141° Southeast 133 153 1,400  Level Nashville TRACON
Mon 01:22:28 PM 36.0833 -86.6500 141° Southeast 197 227 2,700 1,744 Climbing Nashville TRACON
Mon 01:23:06 PM 36.0714 -86.6133 112° Southeast 225 259 3,900 1,020 Climbing Memphis Center
Mon 01:24:08 PM 36.0542 -86.5242 103° East 256 295 4,400 1,984 Climbing Memphis Center
Mon 01:25:10 PM 36.0739 -86.4258 76° East 289 333 8,000 3,097 Climbing Memphis Center
Mon 01:26:12 PM 36.1064 -86.3314 67° East 295 339 10,800 2,177 Climbing Memphis Center
Mon 01:27:14 PM 36.1472 -86.2194 66° East 346 398 12,500 2,226 Climbing Memphis Center
Mon 01:28:16 PM 36.1969 -86.0822 66° East 368 423 15,400 2,371 Climbing Memphis Center
Mon 01:29:18 PM 36.2469 -85.9628 63° Northeast 379 436 17,400 2,032 Climbing Memphis Center
Mon 01:30:20 PM 36.3028 -85.8378 61° Northeast 400 460 19,600 2,077 Climbing Memphis Center
Mon 01:31:28 PM 36.3744 -85.6847 60° Northeast 420 483 21,900 1,754 Climbing Indianapolis Center
Mon 01:32:30 PM 36.4372 -85.5550 59° Northeast 433 498 23,400 1,548 Climbing Indianapolis Center
Mon 01:33:32 PM 36.4939 -85.4144 63° Northeast 451 519 25,100 1,597 Climbing Indianapolis Center
Mon 01:34:34 PM 36.5419 -85.2667 68° East 456 525 26,700 1,258 Climbing Indianapolis Center
Mon 01:35:36 PM 36.5889 -85.1175 69° East 460 529 27,700 968 Climbing Indianapolis Center
Mon 01:36:38 PM 36.6383 -84.9628 68° East 475 547 28,700 629 Climbing Indianapolis Center
Mon 01:37:40 PM 36.6889 -84.8036 68° East 488 562 29,000 145 Climbing Indianapolis Center
Mon 01:38:42 PM 36.7411 -84.6381 68° East 507 583 29,000  Level Indianapolis Center
Mon 01:39:44 PM 36.7972 -84.4589 69° East 516 594 29,000  Level Indianapolis Center
Mon 01:40:46 PM 36.8569 -84.2656 69° East 510 587 29,000  Level Indianapolis Center
Mon 01:41:48 PM 36.9083 -84.0994 69° East 510 587 29,000  Level Indianapolis Center
Mon 01:42:50 PM 36.9594 -83.9333 69° East 511 588 29,000  Level Indianapolis Center
Mon 01:43:52 PM 37.0108 -83.7692 69° East 506 582 29,000  Level Indianapolis Center
Mon 01:44:54 PM 37.0606 -83.6033 69° East 506 582 29,000  Level Indianapolis Center
Mon 01:45:56 PM 37.1108 -83.4381 69° East 504 580 29,000  Level Indianapolis Center
Mon 01:46:58 PM 37.1681 -83.2453 70° East 499 574 29,000  Level Indianapolis Center
Mon 01:48:00 PM 37.2194 -83.0781 69° East 504 580 29,000  Level Indianapolis Center
Mon 01:49:02 PM 37.2683 -82.9128 70° East 498 573 29,000  Level Indianapolis Center
Mon 01:50:04 PM 37.3178 -82.7447 70° East 505 581 29,000  Level Indianapolis Center
Mon 01:51:06 PM 37.3681 -82.5781 69° East 506 582 29,000  Level Indianapolis Center
Mon 01:52:08 PM 37.4156 -82.4111 70° East 506 582 29,000  Level Indianapolis Center
Mon 01:53:10 PM 37.4647 -82.2458 69° East 503 579 29,000  Level Indianapolis Center
Mon 01:54:12 PM 37.5186 -82.0522 71° East 501 577 29,000  Level Indianapolis Center
Mon 01:55:14 PM 37.5656 -81.8869 70° East 500 575 29,000  Level Indianapolis Center
Mon 01:56:16 PM 37.6144 -81.7219 69° East 501 577 29,000  Level Indianapolis Center
Mon 01:57:18 PM 37.6608 -81.5572 70° East 498 573 29,000  Level Indianapolis Center
Mon 01:58:20 PM 37.7042 -81.4006 71° East 498 573 29,000  Level Indianapolis Center
Mon 01:59:22 PM 37.7578 -81.2072 71° East 498 573 29,000  Level Indianapolis Center
Mon 02:00:24 PM 37.7861 -81.0400 78° East 507 583 29,000  Level Indianapolis Center
Mon 02:01:26 PM 37.7967 -80.8669 86° East 505 581 29,000  Level Indianapolis Center
Mon 02:02:28 PM 37.8111 -80.6617 85° East 502 578 29,000  Level Indianapolis Center
Mon 02:03:18 PM 37.8192 -80.5317 85° East 494 568 29,000  Level Washington Center
Mon 02:04:16 PM 37.8303 -80.3586 85° East 494 568 29,000  Level Washington Center
Mon 02:05:17 PM 37.8411 -80.1858 85° East 494 568 29,000  Level Washington Center
Mon 02:06:17 PM 37.8519 -80.0128 85° East 494 568 29,000  Level Washington Center
Mon 02:07:18 PM 37.8619 -79.8556 85° East 499 574 29,000  Level Washington Center
Mon 02:08:18 PM 37.8719 -79.6825 86° East 494 568 29,000  Level Washington Center
Mon 02:09:16 PM 37.8819 -79.5067 86° East 494 568 29,000  Level Washington Center
Mon 02:10:17 PM 37.8917 -79.3336 86° East 494 568 29,000  Level Washington Center
Mon 02:11:17 PM 37.9014 -79.1578 86° East 494 568 29,000  Level Washington Center
Mon 02:12:18 PM 37.9189 -78.9847 83° East 494 568 29,000  Level Washington Center
Mon 02:13:18 PM 37.9428 -78.7936 81° East 502 578 29,000  Level Washington Center
Mon 02:14:16 PM 37.9619 -78.6206 82° East 502 578 29,000  Level Washington Center
Mon 02:15:17 PM 37.9828 -78.4503 81° East 502 578 29,000  Level Washington Center
Mon 02:16:18 PM 38.0036 -78.2772 81° East 497 572 29,000  Level Washington Center
Mon 02:17:19 PM 38.0364 -78.1122 76° East 497 572 29,000  Level Washington Center
Mon 02:18:16 PM 38.1103 -77.9617 58° Northeast 486 559 29,000  Level Washington Center
Mon 02:19:17 PM 38.1839 -77.8133 58° Northeast 486 559 29,000  Level Washington Center
Mon 02:20:18 PM 38.2575 -77.6594 59° Northeast 494 568 29,000  Level Washington Center
Mon 02:21:16 PM 38.3311 -77.5106 58° Northeast 500 575 29,000  Level Washington Center
Mon 02:22:17 PM 38.4083 -77.3564 57° Northeast 505 581 29,000  Level Washington Center
Mon 02:23:18 PM 38.4772 -77.2147 58° Northeast 494 568 29,000  Level Washington Center
Mon 02:24:18 PM 38.5456 -77.0783 57° Northeast 473 544 29,000 -1,068 Level Washington Center
Mon 02:25:16 PM 38.6139 -76.9361 58° Northeast 467 537 26,900 -2,288 Descending Washington Center
Mon 02:26:16 PM 38.6800 -76.7992 58° Northeast 461 531 24,500 -1,600 Descending Washington Center
Mon 02:27:16 PM 38.7253 -76.6533 68° East 446 513 23,700 -1,140 Descending Washington Center
Mon 02:28:17 PM 38.7556 -76.5047 75° East 434 499 22,200 -1,918 Descending Washington Center
Mon 02:29:18 PM 38.7858 -76.3561 75° East 429 494 19,800 -2,269 Descending Washington Center
Mon 02:30:16 PM 38.8136 -76.2150 76° East 419 482 17,700 -2,067 Descending Washington Center
Mon 02:31:17 PM 38.8414 -76.0875 74° East 412 474 15,700 -1,328 Descending Washington Center
Mon 02:32:18 PM 38.8689 -75.9650 74° East 389 448 15,000 -353 Descending Washington Center
Mon 02:33:16 PM 38.8964 -75.8425 74° East 365 420 15,000  Level Washington Center
Mon 02:34:16 PM 38.9736 -75.7597 40° Northeast 342 394 15,000 -347 Level Washington Center
Mon 02:35:17 PM 39.0572 -75.6853 35° Northeast 342 394 14,300 -1,500 Descending Washington Center
Mon 02:37:16 PM 39.2500 -75.6500 North 319 367 10,500 -1,642 Descending Philadelphia TRACON
Mon 02:38:16 PM 39.3333 -75.6167 17° North 278 320 9,400 -1,450 Descending Philadelphia TRACON
Mon 02:39:16 PM 39.3833 -75.5500 46° Northeast 277 319 7,600 -1,200 Descending Philadelphia TRACON
Mon 02:40:16 PM 39.4167 -75.4667 63° Northeast 273 314 7,000 -400 Descending Philadelphia TRACON
Mon 02:41:16 PM 39.4667 -75.4000 46° Northeast 271 312 6,800 -500 Descending Philadelphia TRACON
Mon 02:42:16 PM 39.5167 -75.3333 46° Northeast 269 310 6,000 -400 Descending Philadelphia TRACON
Mon 02:43:16 PM 39.5667 -75.2667 46° Northeast 269 310 6,000  Level Philadelphia TRACON
Mon 02:44:16 PM 39.6333 -75.1833 44° Northeast 270 311 6,000  Level Philadelphia TRACON
Mon 02:45:22 PM 39.6833 -75.1167 46° Northeast 271 312 6,000  Level Philadelphia TRACON
Mon 02:46:22 PM 39.7500 -75.0500 38° Northeast 271 312 6,000  Level Philadelphia TRACON
Mon 02:47:22 PM 39.7833 -75.0000 49° Northeast 195 224 6,000  Level Philadelphia TRACON
Mon 02:48:22 PM 39.8167 -74.9500 49° Northeast 185 213 6,000 -500 Level Philadelphia TRACON
Mon 02:49:22 PM 39.8500 -74.9833 322° Northwest 176 203 5,000 -1,550 Descending Philadelphia TRACON
Mon 02:50:22 PM 39.8833 -75.0333 311° West 176 203 2,900 -1,488 Descending Philadelphia TRACON
Mon 02:51:23 PM 39.9000 -75.1000 288° West 169 194 2,000 -744 Descending Philadelphia TRACON
Mon 02:52:23 PM 39.9000 -75.1333 270° West 144 166 1,400 -684 Descending Philadelphia TRACON
Mon 02:53:17 PM 39.8833 -75.1833 247° West 142 163 700 -778 Descending Philadelphia TRACON

Login

Don't have an account? Register now (free) for customized features, flight alerts, and more!